createdAt,value
2022-12-05T00:01:19.075Z,2.69
2022-12-05T00:03:47.033Z,2.69
2022-12-05T00:06:14.803Z,2.66
2022-12-05T00:08:44.121Z,2.65
2022-12-05T00:11:13.754Z,2.66
2022-12-05T00:13:41.640Z,2.68
2022-12-05T00:16:11.620Z,2.67
2022-12-05T00:18:39.742Z,2.66
2022-12-05T00:21:08.673Z,2.66
2022-12-05T00:23:36.395Z,2.67
2022-12-05T00:26:06.276Z,2.68
2022-12-05T00:28:34.918Z,2.68
2022-12-05T00:31:04.061Z,2.71
2022-12-05T00:33:31.829Z,2.71
2022-12-05T00:36:03.618Z,2.65
2022-12-05T00:38:31.363Z,2.70
2022-12-05T00:41:05.769Z,2.68
2022-12-05T00:43:34.264Z,2.65
2022-12-05T00:46:03.801Z,2.66
2022-12-05T00:48:32.297Z,2.67
2022-12-05T00:51:03.479Z,2.62
2022-12-05T00:53:31.511Z,2.62
2022-12-05T00:56:03.555Z,2.61
2022-12-05T00:58:33.752Z,2.62
2022-12-05T01:01:07.649Z,2.61
2022-12-05T01:03:35.547Z,2.57
2022-12-05T01:06:03.501Z,2.60
2022-12-05T01:08:31.214Z,2.63
2022-12-05T01:10:59.840Z,2.62
2022-12-05T01:13:28.665Z,2.66
2022-12-05T01:15:57.829Z,2.66
2022-12-05T01:18:26.725Z,2.69
2022-12-05T01:20:54.776Z,2.71
2022-12-05T01:23:23.505Z,2.70
2022-12-05T01:25:53.468Z,2.71
2022-12-05T01:28:21.259Z,2.70
2022-12-05T01:30:51.171Z,2.66
2022-12-05T01:33:20.298Z,2.59
2022-12-05T01:35:48.002Z,2.62
2022-12-05T01:38:16.707Z,2.68
2022-12-05T01:40:44.471Z,2.71
2022-12-05T01:43:16.873Z,2.73
2022-12-05T01:45:46.906Z,2.76
2022-12-05T01:48:19.245Z,2.78
2022-12-05T01:50:49.749Z,2.74
2022-12-05T01:53:18.591Z,2.77
2022-12-05T01:55:47.904Z,2.76
2022-12-05T01:58:17.151Z,2.77
2022-12-05T02:00:45.631Z,2.76
2022-12-05T02:03:20.064Z,2.76
2022-12-05T02:05:52.393Z,2.75
2022-12-05T02:08:20.609Z,2.74
2022-12-05T02:10:52.763Z,2.76
2022-12-05T02:13:34.390Z,2.76
2022-12-05T02:16:07.087Z,2.78
2022-12-05T02:18:53.640Z,2.78
2022-12-05T02:21:39.436Z,2.79
2022-12-05T02:24:28.795Z,2.78
2022-12-05T02:27:19.598Z,2.80
2022-12-05T02:30:05.492Z,2.81
2022-12-05T02:32:45.500Z,2.78
2022-12-05T02:35:22.227Z,2.75
2022-12-05T02:37:55.946Z,2.70
2022-12-05T02:40:28.054Z,2.68
2022-12-05T02:43:01.129Z,2.65
2022-12-05T02:45:33.242Z,2.66
2022-12-05T02:48:02.725Z,2.68
2022-12-05T02:50:33.787Z,2.62
2022-12-05T02:53:05.817Z,2.59
2022-12-05T02:55:35.211Z,2.58
2022-12-05T02:58:08.501Z,2.57
2022-12-05T03:00:40.747Z,2.57
2022-12-05T03:03:16.308Z,2.56
2022-12-05T03:05:49.854Z,2.58
2022-12-05T03:08:22.349Z,2.58
2022-12-05T03:10:52.809Z,2.59
2022-12-05T03:13:25.835Z,2.56
2022-12-05T03:15:57.434Z,2.54
2022-12-05T03:18:27.744Z,2.57
2022-12-05T03:21:01.129Z,2.56
2022-12-05T03:23:34.140Z,2.56
2022-12-05T03:26:11.874Z,2.59
2022-12-05T03:28:50.264Z,2.62
2022-12-05T03:31:25.877Z,2.64
2022-12-05T03:34:00.495Z,2.65
2022-12-05T03:36:33.746Z,2.64
2022-12-05T03:39:06.935Z,2.63
2022-12-05T03:41:41.332Z,2.64
2022-12-05T03:44:12.955Z,2.63
2022-12-05T03:46:47.812Z,2.65
2022-12-05T03:49:21.302Z,2.63
2022-12-05T03:51:56.206Z,2.63
2022-12-05T03:54:27.348Z,2.67
2022-12-05T03:57:01.491Z,2.71
2022-12-05T03:59:36.121Z,2.72
2022-12-05T04:02:09.414Z,2.71
2022-12-05T04:04:43.720Z,2.72
2022-12-05T04:07:13.653Z,2.77
2022-12-05T04:09:46.728Z,2.79
2022-12-05T04:12:20.508Z,2.76
2022-12-05T04:14:51.420Z,2.75
2022-12-05T04:17:27.090Z,2.81
2022-12-05T04:20:16.966Z,2.84
2022-12-05T04:22:46.063Z,2.84
2022-12-05T04:25:32.976Z,2.82
2022-12-05T04:28:16.754Z,2.79
2022-12-05T04:30:58.706Z,2.79
2022-12-05T04:33:34.545Z,2.80
2022-12-05T04:36:08.771Z,2.85
2022-12-05T04:38:42.449Z,2.84
2022-12-05T04:41:15.582Z,2.82
2022-12-05T04:43:46.738Z,2.76
2022-12-05T04:46:17.541Z,2.78
2022-12-05T04:48:51.704Z,2.79
2022-12-05T04:51:24.131Z,2.78
2022-12-05T04:53:56.730Z,2.79
2022-12-05T04:56:29.003Z,2.85
2022-12-05T04:58:57.123Z,2.84
2022-12-05T05:01:29.281Z,2.79
2022-12-05T05:04:04.603Z,2.77
2022-12-05T05:06:32.370Z,2.78
2022-12-05T05:09:00.102Z,2.79
2022-12-05T05:11:30.650Z,2.80
2022-12-05T05:13:58.346Z,2.82
2022-12-05T05:16:28.019Z,2.79
2022-12-05T05:18:56.299Z,2.84
2022-12-05T05:21:27.370Z,2.87
2022-12-05T05:23:56.086Z,2.86
2022-12-05T05:26:26.407Z,2.88
2022-12-05T05:28:54.728Z,2.85
2022-12-05T05:31:22.796Z,2.84
2022-12-05T05:33:51.506Z,2.83
2022-12-05T05:36:20.750Z,2.89
2022-12-05T05:38:52.638Z,2.90
2022-12-05T05:41:22.892Z,2.88
2022-12-05T05:43:51.872Z,2.84
2022-12-05T05:46:21.898Z,2.82
2022-12-05T05:48:50.005Z,2.83
2022-12-05T05:51:19.151Z,2.89
2022-12-05T05:53:47.200Z,2.94
2022-12-05T05:56:21.729Z,2.97
2022-12-05T05:58:55.365Z,3.00
2022-12-05T06:01:23.270Z,3.03
2022-12-05T06:03:51.712Z,3.03
2022-12-05T06:06:20.739Z,3.04
2022-12-05T06:08:49.043Z,3.05
2022-12-05T06:11:25.397Z,3.04
2022-12-05T06:13:54.363Z,3.05
2022-12-05T06:16:22.692Z,3.06
2022-12-05T06:18:53.260Z,3.05
2022-12-05T06:21:21.917Z,3.03
2022-12-05T06:23:49.876Z,3.04
2022-12-05T06:26:20.785Z,3.07
2022-12-05T06:28:48.928Z,3.07
2022-12-05T06:31:18.729Z,3.10
2022-12-05T06:33:47.202Z,3.07
2022-12-05T06:36:17.296Z,3.09
2022-12-05T06:38:45.406Z,3.08
2022-12-05T06:41:15.979Z,3.10
2022-12-05T06:43:45.099Z,3.09
2022-12-05T06:46:14.430Z,3.09
2022-12-05T06:48:42.203Z,3.12
2022-12-05T06:51:11.039Z,3.09
2022-12-05T06:53:38.836Z,3.07
2022-12-05T06:56:08.592Z,3.05
2022-12-05T06:58:36.299Z,3.07
2022-12-05T07:01:23.030Z,3.07
2022-12-05T07:03:50.995Z,3.08
2022-12-05T07:06:18.962Z,3.06
2022-12-05T07:08:47.384Z,3.06
2022-12-05T07:11:15.143Z,3.08
2022-12-05T07:13:42.926Z,3.07
2022-12-05T07:16:12.046Z,3.07
2022-12-05T07:18:40.050Z,3.07
2022-12-05T07:21:12.236Z,3.06
2022-12-05T07:23:40.615Z,3.05
2022-12-05T07:26:09.685Z,3.08
2022-12-05T07:28:37.474Z,3.09
2022-12-05T07:31:07.886Z,3.07
2022-12-05T07:33:37.965Z,3.07
2022-12-05T07:36:08.467Z,3.10
2022-12-05T07:38:36.325Z,3.10
2022-12-05T07:41:11.627Z,3.10
2022-12-05T07:43:40.991Z,3.10
2022-12-05T07:46:11.604Z,3.11
2022-12-05T07:48:42.062Z,3.08
2022-12-05T07:51:10.911Z,3.11
2022-12-05T07:53:41.554Z,3.10
2022-12-05T07:56:11.341Z,3.13
2022-12-05T07:58:39.416Z,3.14
2022-12-05T08:01:08.386Z,3.16
2022-12-05T08:03:37.421Z,3.17
2022-12-05T08:06:08.142Z,3.18
2022-12-05T08:08:36.033Z,3.20
2022-12-05T08:11:05.376Z,3.22
2022-12-05T08:13:33.113Z,3.24
2022-12-05T08:16:04.740Z,3.24
2022-12-05T08:18:32.862Z,3.24
2022-12-05T08:21:04.577Z,3.25
2022-12-05T08:23:34.735Z,3.28
2022-12-05T08:26:04.356Z,3.31
2022-12-05T08:28:33.348Z,3.32
2022-12-05T08:31:06.070Z,3.37
2022-12-05T08:33:34.159Z,3.37
2022-12-05T08:36:03.463Z,3.39
2022-12-05T08:38:32.927Z,3.41
2022-12-05T08:41:02.848Z,3.42
2022-12-05T08:43:30.752Z,3.44
2022-12-05T08:45:59.253Z,3.44
2022-12-05T08:48:29.630Z,3.47
2022-12-05T08:50:58.077Z,3.51
2022-12-05T08:53:25.962Z,3.53
2022-12-05T08:55:55.087Z,3.53
2022-12-05T08:58:22.973Z,3.57
2022-12-05T09:00:50.988Z,3.61
2022-12-05T09:03:18.733Z,3.63
2022-12-05T09:05:46.513Z,3.64
2022-12-05T09:08:14.380Z,3.63
2022-12-05T09:10:42.219Z,3.62
2022-12-05T09:13:11.272Z,3.64
2022-12-05T09:15:39.821Z,3.64
2022-12-05T09:18:07.576Z,3.66
2022-12-05T09:20:35.485Z,3.68
2022-12-05T09:23:03.208Z,3.65
2022-12-05T09:25:30.910Z,3.64
2022-12-05T09:27:58.829Z,3.65
2022-12-05T09:30:27.861Z,3.66
2022-12-05T09:32:55.570Z,3.69
2022-12-05T09:35:23.257Z,3.68
2022-12-05T09:37:51.047Z,3.68
2022-12-05T09:40:19.882Z,3.69
2022-12-05T09:42:59.269Z,3.72
2022-12-05T09:45:31.456Z,3.75
2022-12-05T09:48:02.562Z,3.77
2022-12-05T09:50:33.504Z,3.81
2022-12-05T09:53:11.013Z,3.80
2022-12-05T09:55:52.765Z,3.83
2022-12-05T09:58:26.302Z,3.84
2022-12-05T10:01:03.183Z,3.86
2022-12-05T10:03:40.020Z,3.89
2022-12-05T10:06:14.804Z,3.92
2022-12-05T10:08:59.550Z,3.92
2022-12-05T10:11:35.526Z,3.95
2022-12-05T10:14:10.645Z,3.98
2022-12-05T10:16:47.150Z,4.01
2022-12-05T10:19:19.812Z,4.03
2022-12-05T10:21:53.038Z,4.07
2022-12-05T10:24:29.775Z,4.12
2022-12-05T10:27:02.270Z,4.16
2022-12-05T10:29:34.528Z,4.19
2022-12-05T10:32:10.446Z,4.22
2022-12-05T10:34:40.321Z,4.25
2022-12-05T10:37:14.896Z,4.29
2022-12-05T10:39:42.654Z,4.27
2022-12-05T10:42:14.905Z,4.26
2022-12-05T10:44:43.655Z,4.24
2022-12-05T10:47:13.453Z,4.25
2022-12-05T10:49:41.385Z,4.25
2022-12-05T10:52:11.320Z,4.24
2022-12-05T10:54:45.729Z,4.25
2022-12-05T10:57:23.105Z,4.27
2022-12-05T10:59:50.979Z,4.30
2022-12-05T11:02:25.906Z,4.33
2022-12-05T11:04:54.125Z,4.37
2022-12-05T11:07:27.556Z,4.41
2022-12-05T11:09:55.489Z,4.37
2022-12-05T11:12:25.503Z,4.41
2022-12-05T11:15:02.891Z,4.42
2022-12-05T11:17:36.057Z,4.44
2022-12-05T11:20:24.984Z,4.48
2022-12-05T11:22:55.010Z,4.53
2022-12-05T11:25:30.162Z,4.55
2022-12-05T11:28:01.429Z,4.60
2022-12-05T11:30:30.985Z,4.63
2022-12-05T11:33:20.303Z,4.66
2022-12-05T11:35:48.329Z,4.70
2022-12-05T11:38:18.775Z,4.75
2022-12-05T11:40:54.543Z,4.77
2022-12-05T11:43:42.709Z,4.78
2022-12-05T11:46:26.399Z,4.80
2022-12-05T11:49:15.783Z,4.80
2022-12-05T11:51:48.983Z,4.82
2022-12-05T11:55:03.957Z,4.83
2022-12-05T11:57:33.242Z,4.85
2022-12-05T12:00:08.962Z,4.86
2022-12-05T12:02:56.132Z,4.83
2022-12-05T12:05:33.691Z,4.83
2022-12-05T12:08:13.691Z,4.85
2022-12-05T12:10:50.651Z,4.86
2022-12-05T12:13:31.739Z,4.86
2022-12-05T12:16:09.389Z,4.84
2022-12-05T12:19:17.728Z,4.83
2022-12-05T12:22:03.328Z,4.83
2022-12-05T12:24:43.113Z,4.86
2022-12-05T12:27:17.458Z,4.87
2022-12-05T12:30:00.972Z,4.87
2022-12-05T12:32:36.047Z,4.88
2022-12-05T12:35:18.272Z,4.89
2022-12-05T12:38:01.135Z,4.88
2022-12-05T12:40:36.760Z,4.89
2022-12-05T12:43:51.665Z,4.93
2022-12-05T12:46:30.818Z,4.95
2022-12-05T12:49:31.551Z,4.91
2022-12-05T12:52:03.806Z,4.94
2022-12-05T12:55:04.401Z,4.97
2022-12-05T12:57:56.076Z,4.98
2022-12-05T13:00:36.246Z,5.02
2022-12-05T13:03:09.311Z,5.06
2022-12-05T13:05:43.839Z,5.12
2022-12-05T13:08:21.443Z,5.12
2022-12-05T13:10:51.299Z,5.15
2022-12-05T13:13:22.308Z,5.15
2022-12-05T13:15:52.541Z,5.18
2022-12-05T13:18:22.485Z,5.19
2022-12-05T13:20:54.585Z,5.21
2022-12-05T13:23:26.806Z,5.21
2022-12-05T13:25:58.695Z,5.24
2022-12-05T13:28:31.880Z,5.23
2022-12-05T13:31:06.415Z,5.18
2022-12-05T13:33:37.109Z,5.21
2022-12-05T13:36:28.748Z,5.21
2022-12-05T13:39:18.959Z,5.23
2022-12-05T13:42:08.643Z,5.26
2022-12-05T13:44:42.799Z,5.27
2022-12-05T13:47:26.001Z,5.27
2022-12-05T13:49:55.702Z,5.32
2022-12-05T13:52:27.833Z,5.27
2022-12-05T13:55:01.895Z,5.25
2022-12-05T13:57:51.782Z,5.26
2022-12-05T14:00:26.257Z,5.32
2022-12-05T14:02:56.365Z,5.32
2022-12-05T14:05:38.077Z,5.30
2022-12-05T14:08:47.781Z,5.29
2022-12-05T14:11:15.858Z,5.29
2022-12-05T14:13:46.233Z,5.32
2022-12-05T14:16:48.111Z,5.31
2022-12-05T14:19:39.709Z,5.30
2022-12-05T14:22:22.824Z,5.29
2022-12-05T14:24:58.924Z,5.26
2022-12-05T14:27:44.062Z,5.24
2022-12-05T14:30:23.833Z,5.20
2022-12-05T14:32:53.938Z,5.15
2022-12-05T14:35:27.264Z,5.12
2022-12-05T14:37:57.680Z,5.09
2022-12-05T14:40:31.729Z,5.03
2022-12-05T14:43:02.263Z,4.99
2022-12-05T14:45:35.880Z,4.97
2022-12-05T14:48:07.142Z,4.94
2022-12-05T14:50:40.103Z,4.93
2022-12-05T14:53:22.221Z,4.88
2022-12-05T14:55:53.919Z,4.89
2022-12-05T14:58:31.112Z,4.89
2022-12-05T15:01:02.985Z,4.85
2022-12-05T15:03:34.651Z,4.86
2022-12-05T15:06:04.823Z,4.84
2022-12-05T15:08:41.402Z,4.81
2022-12-05T15:11:28.093Z,4.81
2022-12-05T15:13:59.382Z,4.77
2022-12-05T15:16:31.625Z,4.74
2022-12-05T15:19:04.834Z,4.71
2022-12-05T15:21:37.294Z,4.70
2022-12-05T15:24:07.024Z,4.69
2022-12-05T15:26:48.573Z,4.66
2022-12-05T15:29:25.351Z,4.65
2022-12-05T15:31:56.923Z,4.63
2022-12-05T15:34:29.030Z,4.60
2022-12-05T15:37:00.995Z,4.59
2022-12-05T15:39:28.958Z,4.53
2022-12-05T15:41:58.214Z,4.56
2022-12-05T15:44:36.123Z,4.54
2022-12-05T15:47:19.882Z,4.53
2022-12-05T15:49:47.779Z,4.50
2022-12-05T15:52:25.713Z,4.48
2022-12-05T15:54:55.384Z,4.48
2022-12-05T15:57:29.240Z,4.49
2022-12-05T16:00:02.777Z,4.51
2022-12-05T16:02:39.137Z,4.47
2022-12-05T16:05:20.497Z,4.48
2022-12-05T16:07:50.006Z,4.47
2022-12-05T16:10:23.461Z,4.46
2022-12-05T16:12:54.638Z,4.45
2022-12-05T16:15:26.714Z,4.43
2022-12-05T16:17:57.721Z,4.42
2022-12-05T16:20:31.417Z,4.39
2022-12-05T16:23:02.666Z,4.39
2022-12-05T16:25:33.684Z,4.37
2022-12-05T16:28:16.683Z,4.34
2022-12-05T16:30:57.179Z,4.33
2022-12-05T16:33:28.490Z,4.33
2022-12-05T16:35:56.411Z,4.36
2022-12-05T16:38:26.832Z,4.38
2022-12-05T16:40:57.922Z,4.40
2022-12-05T16:43:29.190Z,4.40
2022-12-05T16:45:59.775Z,4.38
2022-12-05T16:48:31.046Z,4.38
2022-12-05T16:51:19.438Z,4.37
2022-12-05T16:53:50.171Z,4.37
2022-12-05T16:56:21.761Z,4.36
2022-12-05T16:58:49.827Z,4.36
2022-12-05T17:01:20.812Z,4.38
2022-12-05T17:03:50.095Z,4.36
2022-12-05T17:06:18.817Z,4.36
2022-12-05T17:08:46.568Z,4.36
2022-12-05T17:11:18.363Z,4.37
2022-12-05T17:13:49.133Z,4.38
2022-12-05T17:16:18.240Z,4.39
2022-12-05T17:18:46.261Z,4.36
2022-12-05T17:21:18.696Z,4.36
2022-12-05T17:23:48.201Z,4.34
2022-12-05T17:26:18.205Z,4.33
2022-12-05T17:28:46.184Z,4.34
2022-12-05T17:31:16.777Z,4.33
2022-12-05T17:33:44.656Z,4.33
2022-12-05T17:36:12.482Z,4.30
2022-12-05T17:38:42.199Z,4.31
2022-12-05T17:41:16.422Z,4.30
2022-12-05T17:43:44.386Z,4.29
2022-12-05T17:46:20.225Z,4.32
2022-12-05T17:48:48.388Z,4.33
2022-12-05T17:51:16.239Z,4.36
2022-12-05T17:53:45.681Z,4.35
2022-12-05T17:56:14.630Z,4.36
2022-12-05T17:58:42.411Z,4.35
2022-12-05T18:01:15.130Z,4.36
2022-12-05T18:03:43.069Z,4.36
2022-12-05T18:06:11.096Z,4.36
2022-12-05T18:08:39.944Z,4.34
2022-12-05T18:11:09.329Z,4.33
2022-12-05T18:13:37.531Z,4.35
2022-12-05T18:16:05.746Z,4.34
2022-12-05T18:18:33.546Z,4.33
2022-12-05T18:21:08.989Z,4.34
2022-12-05T18:23:37.834Z,4.33
2022-12-05T18:26:06.920Z,4.35
2022-12-05T18:28:38.501Z,4.34
2022-12-05T18:31:08.598Z,4.33
2022-12-05T18:33:36.543Z,4.33
2022-12-05T18:36:09.973Z,4.36
2022-12-05T18:38:38.571Z,4.38
2022-12-05T18:41:07.926Z,4.37
2022-12-05T18:43:38.157Z,4.39
2022-12-05T18:46:06.163Z,4.39
2022-12-05T18:48:42.390Z,4.41
2022-12-05T18:51:14.171Z,4.42
2022-12-05T18:53:42.660Z,4.44
2022-12-05T18:56:22.304Z,4.43
2022-12-05T18:58:55.986Z,4.42
2022-12-05T19:01:23.915Z,4.43
2022-12-05T19:03:51.869Z,4.42
2022-12-05T19:06:21.523Z,4.40
2022-12-05T19:08:49.660Z,4.38
2022-12-05T19:11:20.115Z,4.36
2022-12-05T19:13:48.392Z,4.32
2022-12-05T19:16:18.591Z,4.30
2022-12-05T19:18:47.223Z,4.28
2022-12-05T19:21:15.257Z,4.29
2022-12-05T19:23:42.956Z,4.28
2022-12-05T19:26:11.302Z,4.26
2022-12-05T19:28:39.383Z,4.25
2022-12-05T19:31:09.291Z,4.25
2022-12-05T19:33:40.583Z,4.26
2022-12-05T19:36:11.467Z,4.24
2022-12-05T19:38:41.082Z,4.22
2022-12-05T19:41:10.700Z,4.25
2022-12-05T19:43:38.716Z,4.28
2022-12-05T19:46:08.364Z,4.30
2022-12-05T19:48:37.104Z,4.32
2022-12-05T19:51:06.997Z,4.30
2022-12-05T19:53:36.376Z,4.31
2022-12-05T19:56:05.759Z,4.34
2022-12-05T19:58:34.057Z,4.36
2022-12-05T20:01:08.897Z,4.41
2022-12-05T20:03:36.669Z,4.41
2022-12-05T20:06:06.749Z,4.43
2022-12-05T20:08:36.076Z,4.44
2022-12-05T20:11:05.439Z,4.46
2022-12-05T20:13:48.796Z,4.47
2022-12-05T20:16:19.022Z,4.48
2022-12-05T20:18:47.258Z,4.49
2022-12-05T20:21:19.495Z,4.51
2022-12-05T20:23:47.571Z,4.52
2022-12-05T20:26:17.404Z,4.53
2022-12-05T20:28:45.502Z,4.52
2022-12-05T20:31:15.593Z,4.54
2022-12-05T20:33:44.157Z,4.55
2022-12-05T20:36:13.942Z,4.57
2022-12-05T20:38:43.230Z,4.59
2022-12-05T20:41:15.311Z,4.57
2022-12-05T20:43:43.648Z,4.61
2022-12-05T20:46:13.530Z,4.63
2022-12-05T20:48:41.867Z,4.64
2022-12-05T20:51:12.216Z,4.65
2022-12-05T20:53:41.659Z,4.67
2022-12-05T20:56:13.183Z,4.66
2022-12-05T20:58:41.651Z,4.68
2022-12-05T21:01:11.420Z,4.69
2022-12-05T21:03:41.275Z,4.69
2022-12-05T21:06:10.641Z,4.68
2022-12-05T21:08:38.559Z,4.67
2022-12-05T21:11:07.263Z,4.69
2022-12-05T21:13:36.462Z,4.67
2022-12-05T21:16:04.917Z,4.69
2022-12-05T21:18:32.986Z,4.68
2022-12-05T21:21:02.930Z,4.70
2022-12-05T21:23:31.466Z,4.68
2022-12-05T21:26:03.720Z,4.69
2022-12-05T21:28:32.198Z,4.72
2022-12-05T21:31:07.613Z,4.74
2022-12-05T21:33:35.586Z,4.76
2022-12-05T21:36:04.717Z,4.76
2022-12-05T21:38:32.954Z,4.77
2022-12-05T21:41:00.762Z,4.79
2022-12-05T21:43:28.937Z,4.80
2022-12-05T21:45:57.021Z,4.81
2022-12-05T21:48:26.925Z,4.78
2022-12-05T21:50:54.752Z,4.79
2022-12-05T21:53:22.895Z,4.78
2022-12-05T21:56:00.153Z,4.80
2022-12-05T21:58:28.617Z,4.82
2022-12-05T22:00:56.508Z,4.85
2022-12-05T22:03:24.441Z,4.86
2022-12-05T22:06:00.890Z,4.86
2022-12-05T22:08:29.929Z,4.87
2022-12-05T22:10:57.680Z,4.89
2022-12-05T22:13:25.418Z,4.88
2022-12-05T22:15:53.202Z,4.88
2022-12-05T22:18:20.974Z,4.89
2022-12-05T22:20:57.715Z,4.88
2022-12-05T22:23:26.542Z,4.88
2022-12-05T22:25:59.200Z,4.89
2022-12-05T22:28:27.387Z,4.90
2022-12-05T22:30:55.824Z,4.92
2022-12-05T22:33:23.871Z,4.94
2022-12-05T22:35:52.979Z,4.93
2022-12-05T22:38:22.080Z,4.95
2022-12-05T22:40:54.596Z,4.96
2022-12-05T22:43:22.570Z,4.97
2022-12-05T22:45:50.618Z,4.94
2022-12-05T22:48:18.600Z,4.94
2022-12-05T22:50:49.687Z,4.94
2022-12-05T22:53:18.795Z,4.96
2022-12-05T22:55:47.995Z,4.96
2022-12-05T22:58:16.012Z,4.97
2022-12-05T23:00:43.889Z,4.96
2022-12-05T23:03:12.073Z,4.97
2022-12-05T23:05:40.947Z,4.98
2022-12-05T23:08:09.070Z,4.97
2022-12-05T23:10:38.729Z,4.97
2022-12-05T23:13:08.190Z,4.99
2022-12-05T23:15:38.492Z,4.97
2022-12-05T23:18:06.329Z,4.97
2022-12-05T23:20:34.208Z,4.97
2022-12-05T23:23:01.914Z,4.96
2022-12-05T23:25:29.637Z,4.95
2022-12-05T23:27:57.406Z,4.95
2022-12-05T23:30:26.535Z,4.91
2022-12-05T23:32:54.325Z,4.89
2022-12-05T23:35:22.125Z,4.89
2022-12-05T23:37:49.874Z,4.91
2022-12-05T23:40:18.282Z,4.89
2022-12-05T23:42:46.025Z,4.91
2022-12-05T23:45:13.770Z,4.87
2022-12-05T23:47:42.893Z,4.85
2022-12-05T23:50:11.121Z,4.80
2022-12-05T23:52:38.932Z,4.81
2022-12-05T23:55:07.475Z,4.81
2022-12-05T23:57:35.190Z,4.82
